createdAt,value
2017-09-20T00:00:12.657Z,56.17
2017-09-20T00:02:40.353Z,51.33
2017-09-20T00:05:08.021Z,58.55
2017-09-20T00:07:35.707Z,53.95
2017-09-20T00:10:04.092Z,54.25
2017-09-20T00:12:31.691Z,47.45
2017-09-20T00:14:59.324Z,51.53
2017-09-20T00:17:27.682Z,52.15
2017-09-20T00:19:55.306Z,46.83
2017-09-20T00:22:22.939Z,52.25
2017-09-20T00:24:51.253Z,50.78
2017-09-20T00:27:18.885Z,51.65
2017-09-20T00:29:46.490Z,54.15
2017-09-20T00:32:14.197Z,48.47
2017-09-20T00:34:41.820Z,49.58
2017-09-20T00:37:09.408Z,53.33
2017-09-20T00:39:37.867Z,54.40
2017-09-20T00:42:05.473Z,50.53
2017-09-20T00:44:33.089Z,55.17
2017-09-20T00:47:00.673Z,60.03
2017-09-20T00:49:28.313Z,50.70
2017-09-20T00:51:56.025Z,54.92
2017-09-20T00:54:23.608Z,49.65
2017-09-20T00:56:51.270Z,53.13
2017-09-20T00:59:18.865Z,53.65
2017-09-20T01:01:46.573Z,50.65
2017-09-20T01:04:14.201Z,54.47
2017-09-20T01:06:42.603Z,48.00
2017-09-20T01:09:10.236Z,52.65
2017-09-20T01:11:37.835Z,52.67
2017-09-20T01:14:05.530Z,54.63
2017-09-20T01:16:33.198Z,60.15
2017-09-20T01:19:00.826Z,52.55
2017-09-20T01:21:40.354Z,53.08
2017-09-20T01:24:08.876Z,52.28
2017-09-20T01:26:36.651Z,55.38
2017-09-20T01:29:04.284Z,59.70
2017-09-20T01:31:31.935Z,56.42
2017-09-20T01:33:59.572Z,60.83
2017-09-20T01:36:27.180Z,55.92
2017-09-20T01:38:54.853Z,59.20
2017-09-20T01:41:22.526Z,55.35
2017-09-20T01:43:50.945Z,59.90
2017-09-20T01:46:18.553Z,56.45
2017-09-20T01:48:46.203Z,54.75
2017-09-20T01:51:13.881Z,58.58
2017-09-20T01:53:41.448Z,63.58
2017-09-20T01:56:09.116Z,55.53
2017-09-20T01:58:36.781Z,56.30
2017-09-20T02:01:05.129Z,55.50
2017-09-20T02:03:32.811Z,55.03
2017-09-20T02:06:00.438Z,57.20
2017-09-20T02:08:28.064Z,58.83
2017-09-20T02:10:55.665Z,52.55
2017-09-20T02:13:23.279Z,57.05
2017-09-20T02:15:51.725Z,55.80
2017-09-20T02:18:19.337Z,56.50
2017-09-20T02:20:47.591Z,59.30
2017-09-20T02:23:15.953Z,54.38
2017-09-20T02:25:43.577Z,59.08
2017-09-20T02:28:11.178Z,58.83
2017-09-20T02:30:38.784Z,62.00
2017-09-20T02:33:06.508Z,55.60
2017-09-20T02:35:34.229Z,60.53
2017-09-20T02:38:01.855Z,58.95
2017-09-20T02:40:29.490Z,58.05
2017-09-20T02:42:57.148Z,53.33
2017-09-20T02:45:24.753Z,57.72
2017-09-20T02:47:52.385Z,51.95
2017-09-20T02:50:20.738Z,52.65
2017-09-20T02:52:49.127Z,52.03
2017-09-20T02:55:16.725Z,52.42
2017-09-20T02:57:44.385Z,56.10
2017-09-20T03:00:12.024Z,50.42
2017-09-20T03:02:40.994Z,49.28
2017-09-20T03:05:08.667Z,56.03
2017-09-20T03:07:36.256Z,54.50
2017-09-20T03:10:03.892Z,51.25
2017-09-20T03:12:31.794Z,45.38
2017-09-20T03:14:59.416Z,49.60
2017-09-20T03:17:27.016Z,53.97
2017-09-20T03:19:54.613Z,49.00
2017-09-20T03:22:22.249Z,53.08
2017-09-20T03:24:49.895Z,51.40
2017-09-20T03:27:17.689Z,49.65
2017-09-20T03:29:45.297Z,45.12
2017-09-20T03:32:14.292Z,38.20
2017-09-20T03:34:42.685Z,48.58
2017-09-20T03:37:10.328Z,45.12
2017-09-20T03:39:37.978Z,46.15
2017-09-20T03:42:05.642Z,43.05
2017-09-20T03:44:33.238Z,45.20
2017-09-20T03:47:00.880Z,43.63
2017-09-20T03:49:29.325Z,44.60
2017-09-20T03:51:56.922Z,45.70
2017-09-20T03:54:25.396Z,40.00
2017-09-20T03:56:53.766Z,38.67
2017-09-20T03:59:21.428Z,38.05
2017-09-20T04:01:49.029Z,42.03
2017-09-20T04:04:16.831Z,40.00
2017-09-20T04:06:44.456Z,36.05
2017-09-20T04:09:12.078Z,45.97
2017-09-20T04:11:40.243Z,44.22
2017-09-20T04:14:07.843Z,37.03
2017-09-20T04:16:35.433Z,35.67
2017-09-20T04:19:03.639Z,35.30
2017-09-20T04:21:31.317Z,33.33
2017-09-20T04:23:59.760Z,30.05
2017-09-20T04:26:27.479Z,41.65
2017-09-20T04:28:55.115Z,32.95
2017-09-20T04:31:22.833Z,34.20
2017-09-20T04:33:50.468Z,31.20
2017-09-20T04:36:18.186Z,34.92
2017-09-20T04:38:45.831Z,35.15
2017-09-20T04:41:14.233Z,34.45
2017-09-20T04:43:41.922Z,34.42
2017-09-20T04:46:10.148Z,36.10
2017-09-20T04:48:37.782Z,36.67
2017-09-20T04:51:05.485Z,33.08
2017-09-20T04:53:33.116Z,37.83
2017-09-20T04:56:00.818Z,34.80
2017-09-20T04:58:29.276Z,39.17
2017-09-20T05:00:56.966Z,37.97
2017-09-20T05:03:24.666Z,35.22
2017-09-20T05:05:52.449Z,36.05
2017-09-20T05:08:20.166Z,35.53
2017-09-20T05:10:48.453Z,38.78
2017-09-20T05:13:16.141Z,45.15
2017-09-20T05:15:43.794Z,32.40
2017-09-20T05:18:11.432Z,35.13
2017-09-20T05:20:39.148Z,36.70
2017-09-20T05:23:08.457Z,34.38
2017-09-20T05:25:36.122Z,29.10
2017-09-20T05:28:03.802Z,35.70
2017-09-20T05:30:31.441Z,40.03
2017-09-20T05:32:59.406Z,38.47
2017-09-20T05:35:26.985Z,39.28
2017-09-20T05:37:54.733Z,42.72
2017-09-20T05:40:22.318Z,30.25
2017-09-20T05:42:49.930Z,29.42
2017-09-20T05:45:17.587Z,35.60
2017-09-20T05:47:45.233Z,36.58
2017-09-20T05:50:13.618Z,39.35
2017-09-20T05:52:41.255Z,33.72
2017-09-20T05:55:09.683Z,32.00
2017-09-20T05:57:37.319Z,36.85
2017-09-20T06:00:04.910Z,35.03
2017-09-20T06:02:32.551Z,32.75
2017-09-20T06:05:00.141Z,36.00
2017-09-20T06:07:27.803Z,32.47
2017-09-20T06:09:55.464Z,33.28
2017-09-20T06:12:23.073Z,34.97
2017-09-20T06:14:50.741Z,30.12
2017-09-20T06:17:18.358Z,38.75
2017-09-20T06:19:46.773Z,38.33
2017-09-20T06:22:14.402Z,30.08
2017-09-20T06:24:42.031Z,32.65
2017-09-20T06:27:09.711Z,28.15
2017-09-20T06:29:37.282Z,36.85
2017-09-20T06:32:04.965Z,38.63
2017-09-20T06:34:32.648Z,36.35
2017-09-20T06:37:00.267Z,32.17
2017-09-20T06:39:27.916Z,35.83
2017-09-20T06:41:55.535Z,31.87
2017-09-20T06:44:23.959Z,36.63
2017-09-20T06:46:51.629Z,39.58
2017-09-20T06:49:19.316Z,35.03
2017-09-20T06:51:46.953Z,29.85
2017-09-20T06:54:15.365Z,30.52
2017-09-20T06:56:42.973Z,32.28
2017-09-20T06:59:10.580Z,32.80
2017-09-20T07:01:38.182Z,33.72
2017-09-20T07:04:05.868Z,34.90
2017-09-20T07:06:33.506Z,43.85
2017-09-20T07:09:01.535Z,28.83
2017-09-20T07:11:29.161Z,33.40
2017-09-20T07:13:57.314Z,27.67
2017-09-20T07:16:24.932Z,30.12
2017-09-20T07:18:53.866Z,29.63
2017-09-20T07:21:21.532Z,26.30
2017-09-20T07:23:49.134Z,32.70
2017-09-20T07:26:16.813Z,28.40
2017-09-20T07:28:44.453Z,28.35
2017-09-20T07:31:12.047Z,29.58
2017-09-20T07:33:40.401Z,28.20
2017-09-20T07:36:08.040Z,27.15
2017-09-20T07:38:35.615Z,29.37
2017-09-20T07:41:03.322Z,29.92
2017-09-20T07:43:32.346Z,29.67
2017-09-20T07:45:59.957Z,29.65
2017-09-20T07:48:28.504Z,27.70
2017-09-20T07:50:56.140Z,26.05
2017-09-20T07:53:23.798Z,36.03
2017-09-20T07:55:51.497Z,27.83
2017-09-20T07:58:19.077Z,23.27
2017-09-20T08:00:46.862Z,25.25
2017-09-20T08:03:14.494Z,26.73
2017-09-20T08:05:42.152Z,29.10
2017-09-20T08:08:09.767Z,31.08
2017-09-20T08:10:37.392Z,28.95
2017-09-20T08:13:05.827Z,27.73
2017-09-20T08:15:33.487Z,29.07
2017-09-20T08:18:01.151Z,26.05
2017-09-20T08:20:28.750Z,32.58
2017-09-20T08:22:56.433Z,28.73
2017-09-20T08:25:24.098Z,27.60
2017-09-20T08:27:51.696Z,21.60
2017-09-20T08:30:19.354Z,22.97
2017-09-20T08:32:47.762Z,28.67
2017-09-20T08:35:16.042Z,22.35
2017-09-20T08:37:44.445Z,24.30
2017-09-20T08:40:12.072Z,32.67
2017-09-20T08:42:39.747Z,27.97
2017-09-20T08:45:07.389Z,36.40
2017-09-20T08:47:35.032Z,41.05
2017-09-20T08:50:02.683Z,30.87
2017-09-20T08:52:30.418Z,29.60
2017-09-20T08:54:58.062Z,38.87
2017-09-20T08:57:25.702Z,38.80
2017-09-20T08:59:53.341Z,31.33
2017-09-20T09:02:20.945Z,41.03
2017-09-20T09:04:48.648Z,36.70
2017-09-20T09:07:16.271Z,43.60
2017-09-20T09:09:44.650Z,36.87
2017-09-20T09:12:12.279Z,33.73
2017-09-20T09:14:40.820Z,32.90
2017-09-20T09:17:08.426Z,47.50
2017-09-20T09:19:36.075Z,49.90
2017-09-20T09:22:03.738Z,49.00
2017-09-20T09:24:31.409Z,30.30
2017-09-20T09:26:59.055Z,34.77
2017-09-20T09:29:26.730Z,33.57
2017-09-20T09:31:54.406Z,50.57
2017-09-20T09:34:22.048Z,31.00
2017-09-20T09:36:50.328Z,34.67
2017-09-20T09:39:18.038Z,32.10
2017-09-20T09:41:45.642Z,30.10
2017-09-20T09:44:13.292Z,33.23
2017-09-20T09:46:40.897Z,33.03
2017-09-20T09:49:09.316Z,33.27
2017-09-20T09:51:37.708Z,37.20
2017-09-20T09:54:05.624Z,38.33
2017-09-20T09:56:33.231Z,37.27
2017-09-20T09:59:00.845Z,29.97
2017-09-20T10:01:29.343Z,33.80
2017-09-20T10:03:57.175Z,39.87
2017-09-20T10:06:24.786Z,32.37
2017-09-20T10:08:52.407Z,32.63
2017-09-20T10:11:20.010Z,32.90
2017-09-20T10:13:47.639Z,30.50
2017-09-20T10:16:15.367Z,31.83
2017-09-20T10:18:43.065Z,32.63
2017-09-20T10:21:10.825Z,29.97
2017-09-20T10:23:38.974Z,38.30
2017-09-20T10:26:07.172Z,35.07
2017-09-20T10:28:34.811Z,32.00
2017-09-20T10:31:02.429Z,28.73
2017-09-20T10:33:30.048Z,28.07
2017-09-20T10:35:57.666Z,29.07
2017-09-20T10:38:25.287Z,33.77
2017-09-20T10:40:53.703Z,29.50
2017-09-20T10:43:21.313Z,31.17
2017-09-20T10:45:48.963Z,31.00
2017-09-20T10:48:16.624Z,28.50
2017-09-20T10:50:44.273Z,31.63
2017-09-20T10:53:11.922Z,27.17
2017-09-20T10:55:39.555Z,26.83
2017-09-20T10:58:07.364Z,31.40
2017-09-20T11:00:34.975Z,27.50
2017-09-20T11:03:02.618Z,27.70
2017-09-20T11:05:30.212Z,27.73
2017-09-20T11:07:58.726Z,33.10
2017-09-20T11:10:26.352Z,23.80
2017-09-20T11:12:53.954Z,28.23
2017-09-20T11:15:21.568Z,27.53
2017-09-20T11:17:50.302Z,24.80
2017-09-20T11:20:17.965Z,26.03
2017-09-20T11:22:45.616Z,27.40
2017-09-20T11:25:13.268Z,24.33
2017-09-20T11:27:40.888Z,28.00
2017-09-20T11:30:09.266Z,28.43
2017-09-20T11:32:37.684Z,24.30
2017-09-20T11:35:05.319Z,29.03
2017-09-20T11:37:32.951Z,21.47
2017-09-20T11:40:00.573Z,20.23
2017-09-20T11:42:28.186Z,20.20
2017-09-20T11:44:55.812Z,17.97
2017-09-20T11:47:23.441Z,17.30
2017-09-20T11:49:51.156Z,16.23
2017-09-20T11:52:19.101Z,17.37
2017-09-20T11:54:46.867Z,22.93
2017-09-20T11:57:14.478Z,16.63
2017-09-20T11:59:42.152Z,24.97
2017-09-20T12:02:09.781Z,19.53
2017-09-20T12:04:37.413Z,20.10
2017-09-20T12:07:05.029Z,16.47
2017-09-20T12:09:33.613Z,17.40
2017-09-20T12:12:01.248Z,15.93
2017-09-20T12:14:28.951Z,15.90
2017-09-20T12:16:56.618Z,18.50
2017-09-20T12:19:24.204Z,16.17
2017-09-20T12:21:51.792Z,17.23
2017-09-20T12:24:19.534Z,15.20
2017-09-20T12:29:21.405Z,14.20
2017-09-20T12:31:49.009Z,15.67
2017-09-20T12:34:17.386Z,15.07
2017-09-20T12:36:45.747Z,26.17
2017-09-20T12:39:13.388Z,23.60
2017-09-20T12:41:41.075Z,24.07
2017-09-20T12:44:09.427Z,31.50
2017-09-20T12:46:37.062Z,26.63
2017-09-20T12:49:04.717Z,35.50
2017-09-20T12:51:32.413Z,28.40
2017-09-20T12:54:00.227Z,26.13
2017-09-20T12:56:28.636Z,25.60
2017-09-20T12:58:56.258Z,25.57
2017-09-20T13:01:23.874Z,29.80
2017-09-20T13:03:51.835Z,27.90
2017-09-20T13:06:19.467Z,28.03
2017-09-20T13:08:49.017Z,29.93
2017-09-20T13:11:17.517Z,29.40
2017-09-20T13:13:45.374Z,23.83
2017-09-20T13:16:13.160Z,26.37
2017-09-20T13:18:41.730Z,28.97
2017-09-20T13:21:09.439Z,24.27
2017-09-20T13:23:37.068Z,24.37
2017-09-20T13:26:04.798Z,22.53
2017-09-20T13:28:32.462Z,24.87
2017-09-20T13:31:00.203Z,30.20
2017-09-20T13:33:27.827Z,27.07
2017-09-20T13:35:55.473Z,28.60
2017-09-20T13:38:23.122Z,22.47
2017-09-20T13:40:50.743Z,26.07
2017-09-20T13:43:18.629Z,25.87
2017-09-20T13:45:47.011Z,27.50
2017-09-20T13:48:14.609Z,28.50
2017-09-20T13:50:42.605Z,26.97
2017-09-20T13:53:11.050Z,29.27
2017-09-20T13:55:38.681Z,22.70
2017-09-20T13:58:06.437Z,32.23
2017-09-20T14:00:33.997Z,27.40
2017-09-20T14:03:01.580Z,23.47
2017-09-20T14:05:29.168Z,23.47
2017-09-20T14:07:56.804Z,26.17
2017-09-20T14:10:25.285Z,30.10
2017-09-20T14:12:52.888Z,26.83
2017-09-20T14:15:21.299Z,22.53
2017-09-20T14:17:48.899Z,29.23
2017-09-20T14:20:16.565Z,23.20
2017-09-20T14:22:44.212Z,26.83
2017-09-20T14:25:12.618Z,34.53
2017-09-20T14:27:41.046Z,27.27
2017-09-20T14:30:08.627Z,25.57
2017-09-20T14:32:36.264Z,25.50
2017-09-20T14:35:03.880Z,25.90
2017-09-20T14:37:32.297Z,27.40
2017-09-20T14:39:59.973Z,25.83
2017-09-20T14:42:27.793Z,24.37
2017-09-20T14:44:55.421Z,29.43
2017-09-20T14:47:23.035Z,21.43
2017-09-20T14:49:50.648Z,21.90
2017-09-20T14:52:19.068Z,20.07
2017-09-20T14:54:46.770Z,19.60
2017-09-20T14:57:14.444Z,19.03
2017-09-20T14:59:42.030Z,23.87
2017-09-20T15:02:09.653Z,17.73
2017-09-20T15:04:37.292Z,26.83
2017-09-20T15:07:04.917Z,20.97
2017-09-20T15:09:32.618Z,21.87
2017-09-20T15:12:00.268Z,17.40
2017-09-20T15:14:27.929Z,17.87
2017-09-20T15:16:55.597Z,17.13
2017-09-20T15:19:23.251Z,21.17
2017-09-20T15:21:50.842Z,20.43
2017-09-20T15:24:18.480Z,19.60
2017-09-20T15:26:46.165Z,21.50
2017-09-20T15:29:13.788Z,20.73
2017-09-20T15:31:42.159Z,20.60
2017-09-20T15:34:10.596Z,20.00
2017-09-20T15:36:38.202Z,18.57
2017-09-20T15:39:06.557Z,22.27
2017-09-20T15:41:34.162Z,17.33
2017-09-20T15:44:01.788Z,15.77
2017-09-20T15:46:30.175Z,19.10
2017-09-20T15:48:58.592Z,18.87
2017-09-20T15:51:26.293Z,23.20
2017-09-20T15:53:53.979Z,18.27
2017-09-20T15:56:22.406Z,19.97
2017-09-20T15:58:50.039Z,22.93
2017-09-20T16:01:17.633Z,22.43
2017-09-20T16:03:46.180Z,23.00
2017-09-20T16:06:13.878Z,22.40
2017-09-20T16:08:42.441Z,19.10
2017-09-20T16:11:10.052Z,21.93
2017-09-20T16:13:37.679Z,19.60
2017-09-20T16:16:05.283Z,20.90
2017-09-20T16:18:32.953Z,25.20
2017-09-20T16:21:00.870Z,24.30
2017-09-20T16:23:28.483Z,24.43
2017-09-20T16:25:56.087Z,27.43
2017-09-20T16:28:23.710Z,23.83
2017-09-20T16:30:51.389Z,24.20
2017-09-20T16:33:19.025Z,24.33
2017-09-20T16:35:46.649Z,51.00
2017-09-20T16:38:14.399Z,31.10
2017-09-20T16:40:41.980Z,35.23
2017-09-20T16:43:09.668Z,22.90
2017-09-20T16:45:37.330Z,28.83
2017-09-20T16:48:06.692Z,24.97
2017-09-20T16:50:34.564Z,24.93
2017-09-20T16:53:02.193Z,29.50
2017-09-20T16:55:29.802Z,25.10
2017-09-20T16:57:57.432Z,22.97
2017-09-20T17:00:25.079Z,26.67
2017-09-20T17:02:53.456Z,30.20
2017-09-20T17:05:21.100Z,37.63
2017-09-20T17:07:48.758Z,30.87
2017-09-20T17:10:16.338Z,32.57
2017-09-20T17:12:44.072Z,38.00
2017-09-20T17:15:11.711Z,39.00
2017-09-20T17:17:39.314Z,29.60
2017-09-20T17:20:06.908Z,50.03
2017-09-20T17:22:34.580Z,30.23
2017-09-20T17:25:02.310Z,22.80
2017-09-20T17:27:29.909Z,29.40
2017-09-20T17:29:57.507Z,31.93
2017-09-20T17:32:25.178Z,50.40
2017-09-20T17:34:52.849Z,29.07
2017-09-20T17:37:20.453Z,28.90
2017-09-20T17:39:48.289Z,26.67
2017-09-20T17:42:15.919Z,29.30
2017-09-20T17:44:43.683Z,24.80
2017-09-20T17:47:11.285Z,56.10
2017-09-20T17:49:38.926Z,28.70
2017-09-20T17:52:07.341Z,26.83
2017-09-20T17:57:08.858Z,27.60
2017-09-20T17:59:37.272Z,30.47
2017-09-20T18:02:04.896Z,28.60
2017-09-20T18:04:33.264Z,28.17
2017-09-20T18:07:00.920Z,32.67
2017-09-20T18:09:28.530Z,23.40
2017-09-20T18:11:56.143Z,30.23
2017-09-20T18:14:23.805Z,28.53
2017-09-20T18:16:51.616Z,31.30
2017-09-20T18:19:19.233Z,30.97
2017-09-20T18:21:46.902Z,27.20
2017-09-20T18:24:14.586Z,25.67
2017-09-20T18:26:42.206Z,29.93
2017-09-20T18:29:09.815Z,66.37
2017-09-20T18:31:37.435Z,54.67
2017-09-20T18:34:05.063Z,43.30
2017-09-20T18:36:32.702Z,39.80
2017-09-20T18:39:00.385Z,28.93
2017-09-20T18:41:27.986Z,64.30
2017-09-20T18:43:56.521Z,34.17
2017-09-20T18:46:24.117Z,34.10
2017-09-20T18:48:52.057Z,26.97
2017-09-20T18:51:19.773Z,31.60
2017-09-20T18:53:47.415Z,30.10
2017-09-20T18:56:15.045Z,31.07
2017-09-20T18:58:43.559Z,35.80
2017-09-20T19:01:11.189Z,30.37
2017-09-20T19:03:38.790Z,34.73
2017-09-20T19:06:06.543Z,37.00
2017-09-20T19:08:34.934Z,35.47
2017-09-20T19:11:02.532Z,39.10
2017-09-20T19:13:30.142Z,30.80
2017-09-20T19:15:57.801Z,33.63
2017-09-20T19:18:25.437Z,38.10
2017-09-20T19:20:53.077Z,29.90
2017-09-20T19:23:20.708Z,37.20
2017-09-20T19:25:49.094Z,33.50
2017-09-20T19:28:16.737Z,48.27
2017-09-20T19:30:44.406Z,37.77
2017-09-20T19:33:12.060Z,34.67
2017-09-20T19:35:39.743Z,34.70
2017-09-20T19:38:07.459Z,39.65
2017-09-20T19:40:35.139Z,37.27
2017-09-20T19:43:02.737Z,38.67
2017-09-20T19:45:30.379Z,41.27
2017-09-20T19:47:58.027Z,42.60
2017-09-20T19:50:25.678Z,37.90
2017-09-20T19:52:54.194Z,41.22
2017-09-20T19:55:21.798Z,38.75
2017-09-20T19:57:50.184Z,38.10
2017-09-20T20:00:17.780Z,41.97
2017-09-20T20:02:46.208Z,39.33
2017-09-20T20:05:14.591Z,42.17
2017-09-20T20:07:42.932Z,37.65
2017-09-20T20:10:10.561Z,42.88
2017-09-20T20:12:38.423Z,41.55
2017-09-20T20:15:06.071Z,42.83
2017-09-20T20:17:34.404Z,44.85
2017-09-20T20:20:02.610Z,40.45
2017-09-20T20:22:30.998Z,44.25
2017-09-20T20:24:59.407Z,37.88
2017-09-20T20:27:27.024Z,35.10
2017-09-20T20:29:55.390Z,40.10
2017-09-20T20:32:22.995Z,41.97
2017-09-20T20:34:50.701Z,42.50
2017-09-20T20:37:18.298Z,41.37
2017-09-20T20:39:45.897Z,45.35
2017-09-20T20:42:13.515Z,49.47
2017-09-20T20:44:41.850Z,41.15
2017-09-20T20:47:09.529Z,38.97
2017-09-20T20:49:37.136Z,38.75
2017-09-20T20:52:04.757Z,43.13
2017-09-20T20:54:32.348Z,40.53
2017-09-20T20:57:00.724Z,47.62
2017-09-20T20:59:29.123Z,40.92
2017-09-20T21:01:56.753Z,46.50
2017-09-20T21:04:24.974Z,40.53
2017-09-20T21:06:52.576Z,43.17
2017-09-20T21:09:20.190Z,43.65
2017-09-20T21:11:47.836Z,49.00
2017-09-20T21:14:15.428Z,41.88
2017-09-20T21:16:43.049Z,41.42
2017-09-20T21:19:10.644Z,43.67
2017-09-20T21:21:38.239Z,43.87
2017-09-20T21:24:05.855Z,43.65
2017-09-20T21:26:33.455Z,42.53
2017-09-20T21:29:01.103Z,43.92
2017-09-20T21:31:28.722Z,45.12
2017-09-20T21:33:56.338Z,49.88
2017-09-20T21:36:23.953Z,45.90
2017-09-20T21:38:52.421Z,45.65
2017-09-20T21:41:20.056Z,52.13
2017-09-20T21:43:48.505Z,50.83
2017-09-20T21:46:16.157Z,45.58
2017-09-20T21:48:43.780Z,45.97
2017-09-20T21:51:11.396Z,49.65
2017-09-20T21:53:39.003Z,48.35
2017-09-20T21:56:06.599Z,63.80
2017-09-20T21:58:34.194Z,51.33
2017-09-20T22:01:02.710Z,44.83
2017-09-20T22:03:30.315Z,45.60
2017-09-20T22:05:58.237Z,54.00
2017-09-20T22:08:26.760Z,47.08
2017-09-20T22:10:55.445Z,52.17
2017-09-20T22:13:23.096Z,48.60
2017-09-20T22:16:02.339Z,46.20
2017-09-20T22:18:41.789Z,54.80
2017-09-20T22:21:21.088Z,51.55
2017-09-20T22:24:00.573Z,50.80
2017-09-20T22:26:39.937Z,49.83
2017-09-20T22:29:08.328Z,42.67
2017-09-20T22:31:35.936Z,48.90
2017-09-20T22:34:03.595Z,51.55
2017-09-20T22:36:31.201Z,40.78
2017-09-20T22:38:59.596Z,50.08
2017-09-20T22:41:27.217Z,42.67
2017-09-20T22:43:54.826Z,44.45
2017-09-20T22:46:22.455Z,45.40
2017-09-20T22:48:50.814Z,53.92
2017-09-20T22:51:18.404Z,53.92
2017-09-20T22:53:47.617Z,48.30
2017-09-20T22:56:15.226Z,44.10
2017-09-20T22:58:42.867Z,46.88
2017-09-20T23:01:10.472Z,47.83
2017-09-20T23:03:38.835Z,43.53
2017-09-20T23:06:06.442Z,38.55
2017-09-20T23:08:34.026Z,40.75
2017-09-20T23:11:01.687Z,39.53
2017-09-20T23:13:29.346Z,42.62
2017-09-20T23:15:57.013Z,46.55
2017-09-20T23:18:24.632Z,41.15
2017-09-20T23:20:53.118Z,41.65
2017-09-20T23:23:20.738Z,43.72
2017-09-20T23:25:48.339Z,41.80
2017-09-20T23:28:15.956Z,43.90
2017-09-20T23:30:43.543Z,44.67
2017-09-20T23:33:11.154Z,45.90
2017-09-20T23:35:38.759Z,42.92
2017-09-20T23:38:06.393Z,44.55
2017-09-20T23:40:33.966Z,45.63
2017-09-20T23:43:02.401Z,46.17
2017-09-20T23:45:30.015Z,44.60
2017-09-20T23:47:58.409Z,46.30
2017-09-20T23:50:26.810Z,43.55
2017-09-20T23:52:55.273Z,42.03
2017-09-20T23:55:22.855Z,43.78
2017-09-20T23:57:50.445Z,45.83
